Terminal Aerodrome Forecast
Issued by NWS

Home | Current Version | Previous Version | Text Only | Print | Product List | Glossary On
Versions: 1 2 3 4 5 6 7 8 9 10 11 12 13 14 15 16 17 18 19 20 21
000
FTUS43 KILX 260300 AAB
TAFBMI
TAF AMD
KBMI 260307Z 2603/2624 14010KT P6SM OVC050
     FM261400 22010KT P6SM SCT060
     FM262000 VRB06KT P6SM VCTS SCT050CB BKN100=

USA.gov is the U.S. government's official web portal to all federal, state and local government web resources and services.